地図

経路データ

SID SEASON NUMBER BASIN SUBBASIN NAME ISO_TIME NATURE LAT LON WMO_WIND WMO_PRES WMO_AGENCY TRACK_TYPE DIST2LAND LANDFALL IFLAG USA_AGENCY USA_ATCF_ID USA_LAT USA_LON USA_RECORD USA_STATUS USA_WIND USA_PRES USA_SSHS USA_R34_NE USA_R34_SE USA_R34_SW USA_R34_NW USA_R50_NE USA_R50_SE USA_R50_SW USA_R50_NW USA_R64_NE USA_R64_SE USA_R64_SW USA_R64_NW USA_POCI USA_ROCI USA_RMW USA_EYE TOKYO_LAT TOKYO_LON TOKYO_GRADE TOKYO_WIND TOKYO_PRES TOKYO_R50_DIR TOKYO_R50_LONG TOKYO_R50_SHORT TOKYO_R30_DIR TOKYO_R30_LONG TOKYO_R30_SHORT TOKYO_LAND CMA_LAT CMA_LON CMA_CAT CMA_WIND CMA_PRES HKO_LAT HKO_LON HKO_CAT HKO_WIND HKO_PRES NEWDELHI_LAT NEWDELHI_LON NEWDELHI_GRADE NEWDELHI_WIND NEWDELHI_PRES NEWDELHI_CI NEWDELHI_DP NEWDELHI_POCI REUNION_LAT REUNION_LON REUNION_TYPE REUNION_WIND REUNION_PRES REUNION_TNUM REUNION_CI REUNION_RMW REUNION_R34_NE REUNION_R34_SE REUNION_R34_SW REUNION_R34_NW REUNION_R50_NE REUNION_R50_SE REUNION_R50_SW REUNION_R50_NW REUNION_R64_NE REUNION_R64_SE REUNION_R64_SW REUNION_R64_NW BOM_LAT BOM_LON BOM_TYPE BOM_WIND BOM_PRES BOM_TNUM BOM_CI BOM_RMW BOM_R34_NE BOM_R34_SE BOM_R34_SW BOM_R34_NW BOM_R50_NE BOM_R50_SE BOM_R50_SW BOM_R50_NW BOM_R64_NE BOM_R64_SE BOM_R64_SW BOM_R64_NW BOM_ROCI BOM_POCI BOM_EYE BOM_POS_METHOD BOM_PRES_METHOD NADI_LAT NADI_LON NADI_CAT NADI_WIND NADI_PRES WELLINGTON_LAT WELLINGTON_LON WELLINGTON_WIND WELLINGTON_PRES DS824_LAT DS824_LON DS824_STAGE DS824_WIND DS824_PRES TD9636_LAT TD9636_LON TD9636_STAGE TD9636_WIND TD9636_PRES TD9635_LAT TD9635_LON TD9635_WIND TD9635_PRES TD9635_ROCI NEUMANN_LAT NEUMANN_LON NEUMANN_CLASS NEUMANN_WIND NEUMANN_PRES MLC_LAT MLC_LON MLC_CLASS MLC_WIND MLC_PRES USA_GUST BOM_GUST BOM_GUST_PER REUNION_GUST REUNION_GUST_PER USA_SEAHGT USA_SEARAD_NE USA_SEARAD_SE USA_SEARAD_SW USA_SEARAD_NW STORM_SPEED STORM_DIR
1890231N14298 1890 24 NA CS NOT_NAMED 1890-08-18 12:00:00 TS 14.0000 -62.0000 35 hurdat_atl main 370 369 O_____________ hurdat_atl AL021890 14.0000 -62.0000 TS 35 0 8 284
1890231N14298 1890 24 NA CS NOT_NAMED 1890-08-18 15:00:00 TS 14.0976 -62.4000 main 380 380 P_____________ AL021890 14.0976 -62.4000 TS 35 0 8 284
1890231N14298 1890 24 NA CS NOT_NAMED 1890-08-18 18:00:00 TS 14.2000 -62.8000 35 hurdat_atl main 391 391 O_____________ hurdat_atl AL021890 14.2000 -62.8000 TS 35 0 8 285
1890231N14298 1890 24 NA CS NOT_NAMED 1890-08-18 21:00:00 TS 14.3074 -63.2000 main 403 403 P_____________ AL021890 14.3074 -63.2000 TS 37 0 8 284
1890231N14298 1890 24 NA CS NOT_NAMED 1890-08-19 00:00:00 TS 14.4000 -63.6000 40 hurdat_atl main 417 417 O_____________ hurdat_atl AL021890 14.4000 -63.6000 TS 40 0 8 281
1890231N14298 1890 24 NA CS NOT_NAMED 1890-08-19 03:00:00 TS 14.4498 -63.9776 main 425 419 P_____________ AL021890 14.4498 -63.9776 TS 40 0 8 277
1890231N14298 1890 24 NA CS NOT_NAMED 1890-08-19 06:00:00 TS 14.5000 -64.4000 40 hurdat_atl main 419 392 O_____________ hurdat_atl AL021890 14.5000 -64.4000 TS 40 0 10 279
1890231N14298 1890 24 NA CS NOT_NAMED 1890-08-19 09:00:00 TS 14.6002 -64.9499 main 392 365 P_____________ AL021890 14.6002 -64.9499 TS 40 0 11 281
1890231N14298 1890 24 NA CS NOT_NAMED 1890-08-19 12:00:00 TS 14.7000 -65.5000 40 hurdat_atl main 365 359 O_____________ hurdat_atl AL021890 14.7000 -65.5000 TS 40 0 9 279
1890231N14298 1890 24 NA CS NOT_NAMED 1890-08-19 15:00:00 TS 14.7498 -65.9151 main 359 346 P_____________ AL021890 14.7498 -65.9151 TS 40 0 8 277
1890231N14298 1890 24 NA CS NOT_NAMED 1890-08-19 18:00:00 TS 14.8000 -66.3000 40 hurdat_atl main 347 336 O_____________ hurdat_atl AL021890 14.8000 -66.3000 TS 40 0 8 281
1890231N14298 1890 24 NA CS NOT_NAMED 1890-08-19 21:00:00 TS 14.9000 -66.7424 main 336 324 P_____________ AL021890 14.9000 -66.7424 TS 40 0 9 283
1890231N14298 1890 24 NA CS NOT_NAMED 1890-08-20 00:00:00 TS 15.0000 -67.2000 40 hurdat_atl main 324 324 O_____________ hurdat_atl AL021890 15.0000 -67.2000 TS 40 0 9 280
1890231N14298 1890 24 NA CS NOT_NAMED 1890-08-20 03:00:00 TS 15.0499 -67.6501 main 328 317 P_____________ AL021890 15.0499 -67.6501 TS 40 0 9 277
1890231N14298 1890 24 NA CS NOT_NAMED 1890-08-20 06:00:00 TS 15.1000 -68.1000 40 hurdat_atl main 327 324 O_____________ hurdat_atl AL021890 15.1000 -68.1000 TS 40 0 9 280
1890231N14298 1890 24 NA CS NOT_NAMED 1890-08-20 09:00:00 TS 15.1999 -68.5425 main 332 324 P_____________ AL021890 15.1999 -68.5425 TS 40 0 9 283
1890231N14298 1890 24 NA CS NOT_NAMED 1890-08-20 12:00:00 TS 15.3000 -69.0000 40 hurdat_atl main 325 318 O_____________ hurdat_atl AL021890 15.3000 -69.0000 TS 40 0 9 280
1890231N14298 1890 24 NA CS NOT_NAMED 1890-08-20 15:00:00 TS 15.3575 -69.5001 main 318 287 P_____________ AL021890 15.3575 -69.5001 TS 40 0 10 276
1890231N14298 1890 24 NA CS NOT_NAMED 1890-08-20 18:00:00 TS 15.4000 -70.0000 40 hurdat_atl main 287 268 O_____________ hurdat_atl AL021890 15.4000 -70.0000 TS 40 0 9 276
1890231N14298 1890 24 NA CS NOT_NAMED 1890-08-20 21:00:00 TS 15.4499 -70.4650 main 264 240 P_____________ AL021890 15.4499 -70.4650 TS 40 0 9 277
1890231N14298 1890 24 NA CS NOT_NAMED 1890-08-21 00:00:00 TS 15.5000 -70.9000 40 hurdat_atl main 240 235 O_____________ hurdat_atl AL021890 15.5000 -70.9000 TS 40 0 8 277
1890231N14298 1890 24 NA CS NOT_NAMED 1890-08-21 03:00:00 TS 15.5499 -71.3075 main 235 223 P_____________ AL021890 15.5499 -71.3075 TS 40 0 8 277
1890231N14298 1890 24 NA CS NOT_NAMED 1890-08-21 06:00:00 TS 15.6000 -71.7000 40 hurdat_atl main 226 226 O_____________ hurdat_atl AL021890 15.6000 -71.7000 TS 40 0 7 277
1890231N14298 1890 24 NA CS NOT_NAMED 1890-08-21 09:00:00 TS 15.6423 -72.0776 main 235 229 P_____________ AL021890 15.6423 -72.0776 TS 40 0 8 277
1890231N14298 1890 24 NA CS NOT_NAMED 1890-08-21 12:00:00 TS 15.7000 -72.5000 40 hurdat_atl main 242 242 O_____________ hurdat_atl AL021890 15.7000 -72.5000 TS 40 0 9 280
1890231N14298 1890 24 NA CS NOT_NAMED 1890-08-21 15:00:00 TS 15.8001 -73.0424 main 258 235 P_____________ AL021890 15.8001 -73.0424 TS 40 0 11 281
1890231N14298 1890 24 NA CS NOT_NAMED 1890-08-21 18:00:00 TS 15.9000 -73.6000 40 hurdat_atl main 235 235 O_____________ hurdat_atl AL021890 15.9000 -73.6000 TS 40 0 10 279
1890231N14298 1890 24 NA CS NOT_NAMED 1890-08-21 21:00:00 TS 15.9498 -74.0576 main 235 224 P_____________ AL021890 15.9498 -74.0576 TS 40 0 9 277
1890231N14298 1890 24 NA CS NOT_NAMED 1890-08-22 00:00:00 TS 16.0000 -74.5000 40 hurdat_atl main 232 232 O_____________ hurdat_atl AL021890 16.0000 -74.5000 TS 40 0 9 279
1890231N14298 1890 24 NA CS NOT_NAMED 1890-08-22 03:00:00 TS 16.0849 -74.9925 main 238 204 P_____________ AL021890 16.0849 -74.9925 TS 40 0 10 282
1890231N14298 1890 24 NA CS NOT_NAMED 1890-08-22 06:00:00 TS 16.2000 -75.5000 40 hurdat_atl main 204 180 O_____________ hurdat_atl AL021890 16.2000 -75.5000 TS 40 0 10 285
1890231N14298 1890 24 NA CS NOT_NAMED 1890-08-22 09:00:00 TS 16.3500 -76.0149 main 180 153 P_____________ AL021890 16.3500 -76.0149 TS 40 0 10 287
1890231N14298 1890 24 NA CS NOT_NAMED 1890-08-22 12:00:00 TS 16.5000 -76.5000 40 hurdat_atl main 153 127 O_____________ hurdat_atl AL021890 16.5000 -76.5000 TS 40 0 9 287
1890231N14298 1890 24 NA CS NOT_NAMED 1890-08-22 15:00:00 TS 16.6073 -76.9076 main 127 111 P_____________ AL021890 16.6073 -76.9076 TS 40 0 8 285
1890231N14298 1890 24 NA CS NOT_NAMED 1890-08-22 18:00:00 TS 16.7000 -77.3000 40 hurdat_atl main 112 105 O_____________ hurdat_atl AL021890 16.7000 -77.3000 TS 40 0 8 283
1890231N14298 1890 24 NA CS NOT_NAMED 1890-08-22 21:00:00 TS 16.7925 -77.7501 main 119 116 P_____________ AL021890 16.7925 -77.7501 TS 42 0 9 283
1890231N14298 1890 24 NA CS NOT_NAMED 1890-08-23 00:00:00 TS 16.9000 -78.2000 45 hurdat_atl main 123 123 O_____________ hurdat_atl AL021890 16.9000 -78.2000 TS 45 0 8 287
1890231N14298 1890 24 NA CS NOT_NAMED 1890-08-23 03:00:00 TS 17.0423 -78.5926 main 135 123 P_____________ AL021890 17.0423 -78.5926 TS 45 0 8 291
1890231N14298 1890 24 NA CS NOT_NAMED 1890-08-23 06:00:00 TS 17.2000 -79.0000 45 hurdat_atl main 128 128 O_____________ hurdat_atl AL021890 17.2000 -79.0000 TS 45 0 9 290
1890231N14298 1890 24 NA CS NOT_NAMED 1890-08-23 09:00:00 TS 17.3500 -79.4925 main 146 146 P_____________ AL021890 17.3500 -79.4925 TS 45 0 10 281
1890231N14298 1890 24 NA CS NOT_NAMED 1890-08-23 12:00:00 TS 17.3889 -80.0000 45 hurdat_atl main 191 191 O____________O hurdat_atl AL021890 17.5000 -80.0000 TS 45 0 16.5000 -80.0000 TD 30 9 279
1890231N14298 1890 24 NA CS NOT_NAMED 1890-08-23 15:00:00 TS 17.4965 -80.4545 main 235 235 P____________P AL021890 17.6424 -80.4651 TS 45 0 16.9127 -80.4120 TD 30 9 288
1890231N14298 1890 24 NA CS NOT_NAMED 1890-08-23 18:00:00 TS 17.6636 -80.8727 45 hurdat_atl main 270 270 O____________O hurdat_atl AL021890 17.8000 -80.9000 TS 45 0 17.3000 -80.8000 TD 30 9 297
1890231N14298 1890 24 NA CS NOT_NAMED 1890-08-23 21:00:00 TS 17.8782 -81.2551 main 308 308 P____________P AL021890 17.9924 -81.3076 TS 47 0 17.6499 -81.1503 TD 30 9 303
1890231N14298 1890 24 NA CS NOT_NAMED 1890-08-24 00:00:00 TS 18.1333 -81.6333 50 hurdat_atl main 338 338 O____________O hurdat_atl AL021890 18.2000 -81.7000 TS 50 0 18.0000 -81.5000 TD 30 9 305
1890231N14298 1890 24 NA CS NOT_NAMED 1890-08-24 03:00:00 TS 18.3999 -82.0334 main 345 304 P____________P AL021890 18.3999 -82.1001 TS 50 0 18.4000 -81.9000 TD 30 9 305
1890231N14298 1890 24 NA CS NOT_NAMED 1890-08-24 06:00:00 TS 18.6667 -82.4333 50 hurdat_atl main 304 279 O____________O hurdat_atl AL021890 18.6000 -82.5000 TS 50 0 18.8000 -82.3000 TD 30 9 304
1890231N14298 1890 24 NA CS NOT_NAMED 1890-08-24 09:00:00 TS 18.9065 -82.8144 main 279 249 P____________P AL021890 18.7849 -82.9002 TS 50 0 19.1498 -82.6429 TD 32 9 305
1890231N14298 1890 24 NA CS NOT_NAMED 1890-08-24 12:00:00 TS 19.1667 -83.2000 50 hurdat_atl main 249 228 O____________O hurdat_atl AL021890 19.0000 -83.3000 TS 50 0 19.5000 -83.0000 TS 35 10 308
1890231N14298 1890 24 NA CS NOT_NAMED 1890-08-24 15:00:00 TS 19.4899 -83.6117 main 228 211 P____________P AL021890 19.2849 -83.7000 TS 50 0 19.9000 -83.4350 TS 37 10 310
1890231N14298 1890 24 NA CS NOT_NAMED 1890-08-24 18:00:00 TS 19.8333 -84.0333 50 hurdat_atl main 216 190 O____________O hurdat_atl AL021890 19.6000 -84.1000 TS 50 0 20.3000 -83.9000 TS 40 10 310
1890231N14298 1890 24 NA CS NOT_NAMED 1890-08-24 21:00:00 TS 20.1449 -84.4453 main 190 156 P____________P AL021890 19.8924 -84.4928 TS 50 0 20.6499 -84.3503 TS 42 10 309
1890231N14298 1890 24 NA CS NOT_NAMED 1890-08-25 00:00:00 TS 20.4667 -84.8667 50 hurdat_atl main 145 119 O____________O hurdat_atl AL021890 20.2000 -84.9000 TS 50 0 21.0000 -84.8000 TS 45 11 310
1890231N14298 1890 24 NA CS NOT_NAMED 1890-08-25 03:00:00 TS 20.8333 -85.3142 main 123 103 P____________P AL021890 20.5499 -85.3425 TS 50 0 21.3999 -85.2575 TS 45 11 311
1890231N14298 1890 24 NA CS NOT_NAMED 1890-08-25 06:00:00 TS 21.2000 -85.7667 50 hurdat_atl main 93 66 O____________O hurdat_atl AL021890 20.9000 -85.8000 TS 50 0 21.8000 -85.7000 TS 45 11 310
1890231N14298 1890 24 NA CS NOT_NAMED 1890-08-25 09:00:00 TS 21.5165 -86.2004 main 66 53 P____________P AL021890 21.2074 -86.2502 TS 50 0 22.1348 -86.1006 TS 45 10 308
1890231N14298 1890 24 NA GM NOT_NAMED 1890-08-25 12:00:00 TS 21.8333 -86.6333 50 hurdat_atl main 53 49 O____________O hurdat_atl AL021890 21.5000 -86.7000 TS 50 0 22.5000 -86.5000 TS 45 11 310
1890231N14298 1890 24 NA GM NOT_NAMED 1890-08-25 15:00:00 TS 22.1924 -87.0835 main 78 78 P____________P AL021890 21.7999 -87.1576 TS 50 0 22.9774 -86.9352 TS 45 11 311
1890231N14298 1890 24 NA GM NOT_NAMED 1890-08-25 18:00:00 TS 22.5667 -87.5333 50 hurdat_atl main 124 123 O____________O hurdat_atl AL021890 22.1000 -87.6000 TS 50 0 23.5000 -87.4000 TS 45 11 312
1890231N14298 1890 24 NA GM NOT_NAMED 1890-08-25 21:00:00 TS 22.9382 -87.9718 main 156 156 P____________P AL021890 22.4073 -88.0077 TS 50 0 24.0000 -87.9002 TS 45 11 313
1890231N14298 1890 24 NA GM NOT_NAMED 1890-08-26 00:00:00 TS 23.3000 -88.4000 50 hurdat_atl main 201 201 O____________O hurdat_atl AL021890 22.7000 -88.4000 TS 50 0 24.5000 -88.4000 TS 45 10 311
1890231N14298 1890 24 NA GM NOT_NAMED 1890-08-26 03:00:00 TS 23.6257 -88.8196 main 235 235 P____________P AL021890 22.9349 -88.8004 TS 50 0 25.0073 -88.8579 TS 45 10 311
1890231N14298 1890 24 NA GM NOT_NAMED 1890-08-26 06:00:00 TS 23.9667 -89.2333 50 hurdat_atl main 286 286 O____________O hurdat_atl AL021890 23.2000 -89.2000 TS 50 0 25.5000 -89.3000 TS 45 11 314
1890231N14298 1890 24 NA GM NOT_NAMED 1890-08-26 09:00:00 TS 24.3684 -89.6749 main 343 343 P____________P AL021890 23.5776 -89.6223 TS 50 0 25.9501 -89.7801 TS 45 11 318
1890231N14298 1890 24 NA GM NOT_NAMED 1890-08-26 12:00:00 TS 24.8000 -90.0667 50 hurdat_atl main 399 399 O____________O hurdat_atl AL021890 24.0000 -90.0000 TS 50 0 26.4000 -90.2000 TS 45 11 324
1890231N14298 1890 24 NA GM NOT_NAMED 1890-08-26 15:00:00 TS 25.2207 -90.3545 main 435 390 P____________P AL021890 24.3849 -90.2878 TS 50 0 26.8923 -90.4879 TS 45 10 332
1890231N14298 1890 24 NA GM NOT_NAMED 1890-08-26 18:00:00 TS 25.6667 -90.5667 50 hurdat_atl main 379 335 O____________O hurdat_atl AL021890 24.8000 -90.5000 TS 50 0 27.4000 -90.7000 TS 45 10 339
1890231N14298 1890 24 NA GM NOT_NAMED 1890-08-26 21:00:00 TS 26.1566 -90.7535 main 323 279 P____________P AL021890 25.2850 -90.6800 TS 50 0 27.8999 -90.9004 TS 45 10 343
1890231N14298 1890 24 NA GM NOT_NAMED 1890-08-27 00:00:00 TS 26.6667 -90.9000 50 hurdat_atl main 267 223 O____________O hurdat_atl AL021890 25.8000 -90.8000 TS 50 0 28.4000 -91.1000 TS 45 10 346
1890231N14298 1890 24 NA GM NOT_NAMED 1890-08-27 03:00:00 TS 27.1592 -91.0268 main 212 168 P____________P AL021890 26.2850 -90.8653 TS 50 0 28.9075 -91.3500 TS 45 10 348
1890231N14298 1890 24 NA GM NOT_NAMED 1890-08-27 06:00:00 TS 27.6667 -91.1333 50 hurdat_atl main 157 107 O____________O hurdat_atl AL021890 26.8000 -90.9000 TS 50 0 29.4000 -91.6000 TS 45 11 349
1890231N14298 1890 24 NA GM NOT_NAMED 1890-08-27 09:00:00 TS 28.1874 -91.2608 main 107 59 P____________P AL021890 27.3448 -90.9725 TS 50 0 29.8725 -91.8374 TS 45 11 351
1890231N14298 1890 24 NA GM NOT_NAMED 1890-08-27 12:00:00 TS 28.7667 -91.3333 50 hurdat_atl main 48 0 O____________O hurdat_atl AL021890 28.0000 -91.0000 TS 50 0 30.3000 -92.0000 TS 45 13 359
1890231N14298 1890 24 NA GM NOT_NAMED 1890-08-27 15:00:00 TS 29.4530 -91.3081 main 0 0 P____________P AL021890 28.8471 -90.9395 TS 50 0 30.6649 -92.0452 TS 42 13 3
1890231N14298 1890 24 NA NA NOT_NAMED 1890-08-27 16:00:00 TS 29.6592 -91.2792 50 hurdat_atl main 0 0 O____________P hurdat_atl AL021890 29.1000 -90.9000 L TS 50 0 30.7775 -92.0377 TS 41 11 10
1890231N14298 1890 24 NA NA NOT_NAMED 1890-08-27 18:00:00 TS 30.0000 -91.2000 40 hurdat_atl main 0 0 O____________O hurdat_atl AL021890 29.5000 -90.8000 TS 40 0 31.0000 -92.0000 TS 40 13 9
1890231N14298 1890 24 NA NA NOT_NAMED 1890-08-27 21:00:00 TS 30.6997 -91.0898 main 0 0 P____________P AL021890 30.3746 -90.6623 TS 37 0 31.3499 -91.9448 TS 37 16 6
1890231N14298 1890 24 NA NA NOT_NAMED 1890-08-28 00:00:00 TS 31.5800 -91.0200 35 hurdat_atl main 0 0 O____________O hurdat_atl AL021890 31.5000 -90.5000 TS 35 0 31.7000 -91.8000 TS 35 17 4
1890231N14298 1890 24 NA NA NOT_NAMED 1890-08-28 03:00:00 TS 32.3930 -90.9422 main 0 0 P____________P AL021890 32.7294 -90.2727 TS 32 -1 32.0566 -91.6118 TS 32 14 8
1890231N14298 1890 24 NA NA NOT_NAMED 1890-08-28 06:00:00 TS 32.9333 -90.8000 30 hurdat_atl main 0 0 O____________O hurdat_atl AL021890 34.0000 -90.0000 TD 30 -1 32.4000 -91.2000 TD 30 5 51
1890231N14298 1890 24 NA NA NOT_NAMED 1890-08-28 09:00:00 TS 32.7149 -90.4699 main 0 0 _____________P AL021890 TD -1 32.7149 -90.4699 TD 30 11 87
1890231N14298 1890 24 NA NA NOT_NAMED 1890-08-28 12:00:00 TS 33.0000 -89.5000 main 0 0 _____________O 33.0000 -89.5000 TD 30 18 72
1890231N14298 1890 24 NA NA NOT_NAMED 1890-08-28 15:00:00 TS 33.2594 -88.4236 main 0 0 _____________P 33.2594 -88.4236 TD 30 19 75
1890231N14298 1890 24 NA NA NOT_NAMED 1890-08-28 18:00:00 TS 33.5000 -87.3000 main 0 _____________O 33.5000 -87.3000 TD 30 19 76

IBTrACS Databaseについて

本データベースは、米国NOAAが公開する1842年以降の世界の熱帯低気圧のベストトラックデータアーカイブInternational Best Track Archive for Climate Stewardship (IBTrACS)を、ウェブで閲覧しやすい形式に変換したものです。

最終更新日:2021-11-26